Time;durP1;ratioP1;P1;durP2;ratioP2;P2;SDS_P1;SDS_P2;PMS_P1;PMS_P2;Temp;Humidity;BMP_temperature;BMP_pressure;BME280_temperature;BME280_humidity;BME280_pressure;Samples;Min_cycle;Max_cycle;Signal;HPM_P1;HPM_P2
2022/01/21 00:01:17;;;;;;;;;;;;;;;9.44;35.16;99787.69;4457492;32;34212;-65
2022/01/21 00:03:45;;;;;;;;;;;;;;;9.60;34.91;99778.56;4461298;32;33289;-65
2022/01/21 00:06:12;;;;;;;;;;;;;;;9.72;34.89;99777.72;4465805;32;34120;-65
2022/01/21 00:08:42;;;;;;;;;;;;;;;9.68;34.48;99784.25;4462978;32;34126;-65
2022/01/21 00:11:10;;;;;;;;;;;;;;;9.56;34.70;99786.78;4462064;32;34164;-65
2022/01/21 00:13:38;;;;;;;;;;;;;;;8.76;36.65;99782.53;4460354;32;33647;-64
2022/01/21 00:16:07;;;;;;;;;;;;;;;9.22;35.87;99788.28;4466562;32;34814;-64
2022/01/21 00:18:35;;;;;;;;;;;;;;;9.52;35.07;99795.16;4467011;32;33894;-65
2022/01/21 00:32:09;;;;;;;;;;;;;;;7.53;38.00;99798.34;4461912;32;34359;-65
2022/01/21 00:34:37;;;;;;;;;;;;;;;7.02;40.08;99803.19;4464760;32;33146;-65
2022/01/21 00:37:04;;;;;;;;;;;;;;;6.69;40.15;99784.75;4464490;32;33880;-64
2022/01/21 00:39:34;;;;;;;;;;;;;;;7.15;39.18;99774.91;4464548;32;35022;-65
2022/01/21 00:45:00;;;;;;;;;;;;;;;7.75;38.11;99776.56;4446496;32;33934;-66
2022/01/21 00:47:27;;;;;;;;;;;;;;;7.30;39.43;99778.44;4466921;32;33880;-65
2022/01/21 00:49:55;;;;;;;;;;;;;;;7.27;40.08;99791.94;4465229;32;34293;-65
2022/01/21 00:52:22;;;;;;;;;;;;;;;7.25;39.64;99767.22;4465648;32;34434;-64
2022/01/21 00:54:50;;;;;;;;;;;;;;;7.28;38.97;99771.50;4467828;31;33287;-65
2022/01/21 00:57:17;;;;;;;;;;;;;;;7.43;39.62;99786.53;4464566;32;33135;-67
2022/01/21 00:59:45;;;;;;;;;;;;;;;7.69;38.21;99792.94;4466756;32;34494;-65
2022/01/21 01:02:13;;;;;;;;;;;;;;;7.42;39.14;99796.34;4466296;32;34139;-66
2022/01/21 01:04:41;;;;;;;;;;;;;;;7.52;38.85;99796.63;4462592;32;33017;-65
2022/01/21 01:07:08;;;;;;;;;;;;;;;6.92;39.67;99802.87;4466550;32;34396;-65
2022/01/21 01:09:36;;;;;;;;;;;;;;;6.10;42.33;99807.59;4467324;32;34535;-66
2022/01/21 01:20:13;;;;;;;;;;;;;;;6.63;40.24;99801.91;4462015;32;34249;-65
2022/01/21 01:22:55;;;;;;;;;;;;;;;6.51;40.81;99811.44;4462653;32;34318;-65
2022/01/21 01:28:08;;;;;;;;;;;;;;;6.30;41.22;99812.69;4464523;32;33757;-64
2022/01/21 01:30:37;;;;;;;;;;;;;;;5.78;43.06;99818.19;4458905;32;35350;-66
2022/01/21 01:33:08;;;;;;;;;;;;;;;6.42;41.26;99819.09;4453781;32;34832;-65
2022/01/21 01:35:36;;;;;;;;;;;;;;;7.27;39.11;99812.38;4464874;32;32943;-66
2022/01/21 01:41:13;;;;;;;;;;;;;;;7.21;39.62;99824.25;4417639;32;34140;-65
2022/01/21 01:49:35;;;;;;;;;;;;;;;7.14;39.89;99829.09;4466323;32;34078;-64
2022/01/21 01:52:13;;;;;;;;;;;;;;;6.22;42.62;99836.16;4464080;32;33997;-64
2022/01/21 01:54:42;;;;;;;;;;;;;;;6.04;43.00;99840.69;4466746;32;34566;-65
2022/01/21 01:57:10;;;;;;;;;;;;;;;5.74;43.90;99838.69;4461227;32;33077;-65
2022/01/21 01:59:37;;;;;;;;;;;;;;;5.48;45.89;99839.22;4465452;32;34283;-65
2022/01/21 02:02:06;;;;;;;;;;;;;;;5.36;45.45;99849.56;4460322;32;34059;-65
2022/01/21 02:04:34;;;;;;;;;;;;;;;5.21;46.36;99853.00;4466187;32;34149;-67
2022/01/21 02:07:02;;;;;;;;;;;;;;;5.96;44.21;99843.75;4456134;32;31777;-64
2022/01/21 02:09:29;;;;;;;;;;;;;;;5.47;45.47;99842.84;4460576;32;31633;-65
2022/01/21 02:11:57;;;;;;;;;;;;;;;5.43;46.29;99846.59;4454712;32;34693;-67
2022/01/21 02:14:31;;;;;;;;;;;;;;;5.35;46.08;99850.47;4457040;32;34655;-65
2022/01/21 02:22:15;;;;;;;;;;;;;;;5.68;45.54;99839.06;4456218;32;34533;-65
2022/01/21 02:24:49;;;;;;;;;;;;;;;6.03;45.29;99838.97;4460807;32;35432;-65
2022/01/21 02:27:17;;;;;;;;;;;;;;;5.93;44.90;99824.47;4459287;32;33857;-64
2022/01/21 02:29:49;;;;;;;;;;;;;;;6.22;44.36;99820.22;4462744;32;34419;-65
2022/01/21 02:32:18;;;;;;;;;;;;;;;6.47;43.48;99823.22;4460841;32;35029;-66
2022/01/21 02:34:45;;;;;;;;;;;;;;;6.73;42.54;99820.88;4463890;32;34843;-65
2022/01/21 02:37:13;;;;;;;;;;;;;;;6.88;42.19;99819.97;4457101;32;33041;-64
2022/01/21 02:39:41;;;;;;;;;;;;;;;6.93;41.90;99825.91;4459161;32;33873;-67
2022/01/21 02:42:08;;;;;;;;;;;;;;;6.84;42.59;99826.44;4459833;32;34362;-65
2022/01/21 02:44:36;;;;;;;;;;;;;;;6.82;42.19;99812.34;4463297;32;34600;-66
2022/01/21 02:47:05;;;;;;;;;;;;;;;6.90;42.27;99795.94;4460549;32;34304;-65
2022/01/21 02:49:33;;;;;;;;;;;;;;;6.89;42.34;99808.38;4461540;32;33707;-64
2022/01/21 02:52:01;;;;;;;;;;;;;;;6.76;43.81;99818.87;4461678;32;35795;-67
2022/01/21 02:54:30;;;;;;;;;;;;;;;6.86;42.34;99827.19;4462929;32;35460;-66
2022/01/21 02:56:58;;;;;;;;;;;;;;;7.21;41.26;99826.91;4462205;32;33059;-65
2022/01/21 02:59:25;;;;;;;;;;;;;;;7.51;40.32;99824.19;4462953;32;33447;-65
2022/01/21 03:01:53;;;;;;;;;;;;;;;7.03;42.08;99826.22;4464915;32;35222;-65
2022/01/21 03:04:36;;;;;;;;;;;;;;;7.31;41.12;99808.59;4463236;32;34107;-65
2022/01/21 03:07:04;;;;;;;;;;;;;;;6.82;42.61;99822.16;4458923;32;33546;-66
2022/01/21 03:09:32;;;;;;;;;;;;;;;7.04;42.91;99835.06;4464185;31;34999;-66
2022/01/21 03:11:59;;;;;;;;;;;;;;;6.94;42.73;99832.94;4462557;32;35792;-65
2022/01/21 03:14:27;;;;;;;;;;;;;;;6.32;44.33;99824.06;4461244;32;33895;-65
2022/01/21 03:16:55;;;;;;;;;;;;;;;6.42;43.69;99837.69;4460708;32;31956;-66
2022/01/21 03:19:23;;;;;;;;;;;;;;;6.17;44.46;99843.53;4464390;32;33946;-64
2022/01/21 03:21:50;;;;;;;;;;;;;;;5.55;46.37;99844.16;4459255;32;34245;-66
2022/01/21 03:24:18;;;;;;;;;;;;;;;5.62;46.30;99839.38;4466149;32;34569;-66
2022/01/21 03:26:45;;;;;;;;;;;;;;;5.84;44.72;99844.38;4464654;32;31664;-65
2022/01/21 03:29:13;;;;;;;;;;;;;;;5.80;45.97;99856.97;4466096;32;32886;-65
2022/01/21 03:31:40;;;;;;;;;;;;;;;5.52;47.16;99860.25;4462414;32;34396;-65
2022/01/21 03:34:08;;;;;;;;;;;;;;;5.88;46.10;99867.19;4464577;32;35169;-66
2022/01/21 03:36:36;;;;;;;;;;;;;;;5.99;44.46;99861.34;4462962;32;33390;-67
2022/01/21 03:39:04;;;;;;;;;;;;;;;5.53;44.70;99863.75;4463507;32;34734;-68
2022/01/21 03:41:31;;;;;;;;;;;;;;;5.61;45.11;99858.88;4463863;32;33799;-68
2022/01/21 03:43:59;;;;;;;;;;;;;;;5.84;45.75;99862.97;4462695;32;32280;-66
2022/01/21 03:46:26;;;;;;;;;;;;;;;5.95;43.91;99860.66;4465498;32;33215;-68
2022/01/21 03:48:54;;;;;;;;;;;;;;;6.30;43.04;99861.38;4459389;32;35134;-69
2022/01/21 03:51:22;;;;;;;;;;;;;;;6.09;43.67;99849.25;4462670;32;33969;-69
2022/01/21 03:53:50;;;;;;;;;;;;;;;6.02;43.64;99847.87;4462352;32;34227;-69
2022/01/21 03:56:17;;;;;;;;;;;;;;;6.07;42.95;99865.31;4463020;32;33504;-70
2022/01/21 03:58:50;;;;;;;;;;;;;;;6.12;43.21;99854.41;4460611;32;34385;-67
2022/01/21 04:01:18;;;;;;;;;;;;;;;6.32;43.41;99865.75;4460307;32;33128;-67
2022/01/21 04:03:46;;;;;;;;;;;;;;;6.43;42.19;99858.91;4463412;32;33807;-67
2022/01/21 04:06:14;;;;;;;;;;;;;;;6.40;42.75;99852.91;4462846;32;33286;-67
2022/01/21 04:08:41;;;;;;;;;;;;;;;6.92;40.06;99849.94;4458946;32;34750;-66
2022/01/21 04:11:09;;;;;;;;;;;;;;;6.94;41.08;99856.03;4464729;32;34127;-67
2022/01/21 04:13:37;;;;;;;;;;;;;;;6.68;40.01;99846.88;4464222;32;32803;-67
2022/01/21 04:16:05;;;;;;;;;;;;;;;5.89;42.45;99850.31;4462162;32;33363;-66
2022/01/21 04:18:33;;;;;;;;;;;;;;;5.97;41.14;99847.25;4464737;32;34232;-66
2022/01/21 04:21:01;;;;;;;;;;;;;;;5.08;41.89;99851.91;4464243;32;34096;-67
2022/01/21 04:23:28;;;;;;;;;;;;;;;5.28;43.04;99857.03;4468126;32;34124;-67
2022/01/21 04:25:56;;;;;;;;;;;;;;;5.50;42.33;99859.47;4464016;32;33560;-68
2022/01/21 04:28:24;;;;;;;;;;;;;;;5.52;41.65;99860.25;4463890;32;34448;-67
2022/01/21 04:30:51;;;;;;;;;;;;;;;5.71;43.31;99867.22;4465856;32;34281;-65
2022/01/21 04:33:20;;;;;;;;;;;;;;;4.95;43.56;99870.22;4460722;32;33764;-66
2022/01/21 04:35:48;;;;;;;;;;;;;;;5.51;42.29;99879.75;4461785;32;33256;-67
2022/01/21 04:38:19;;;;;;;;;;;;;;;5.35;41.77;99878.81;4463047;32;33949;-66
2022/01/21 04:41:04;;;;;;;;;;;;;;;5.47;41.22;99878.19;4465114;32;34183;-68
2022/01/21 04:49:05;;;;;;;;;;;;;;;3.64;45.25;99901.94;4457611;32;33931;-66
2022/01/21 04:51:40;;;;;;;;;;;;;;;3.67;45.23;99899.16;4458804;32;33779;-67
2022/01/21 04:54:08;;;;;;;;;;;;;;;4.24;43.91;99896.63;4461462;32;34759;-65
2022/01/21 04:56:37;;;;;;;;;;;;;;;4.00;44.04;99897.72;4463673;32;33083;-65
2022/01/21 04:59:04;;;;;;;;;;;;;;;3.60;45.13;99907.44;4462333;32;34168;-67
2022/01/21 05:01:32;;;;;;;;;;;;;;;3.58;45.62;99901.34;4464557;32;35588;-68
2022/01/21 05:04:00;;;;;;;;;;;;;;;3.96;44.86;99908.44;4462726;32;35119;-68
2022/01/21 05:06:27;;;;;;;;;;;;;;;4.00;46.38;99911.81;4458223;32;33020;-67
2022/01/21 05:08:55;;;;;;;;;;;;;;;4.03;47.64;99913.47;4463112;32;32716;-68
2022/01/21 05:11:23;;;;;;;;;;;;;;;3.77;46.76;99907.56;4461459;32;34354;-68
2022/01/21 05:14:11;;;;;;;;;;;;;;;3.39;46.27;99910.06;4461195;32;33879;-68
2022/01/21 05:16:45;;;;;;;;;;;;;;;4.03;44.88;99916.97;4460113;32;33462;-65
2022/01/21 05:19:15;;;;;;;;;;;;;;;3.32;45.47;99916.56;4463272;32;33971;-65
2022/01/21 05:21:44;;;;;;;;;;;;;;;3.74;45.54;99923.56;4462929;32;35067;-67
2022/01/21 05:24:11;;;;;;;;;;;;;;;3.70;44.56;99933.44;4462380;32;34018;-65
2022/01/21 05:26:41;;;;;;;;;;;;;;;3.65;44.25;99934.56;4462911;32;33152;-68
2022/01/21 05:29:09;;;;;;;;;;;;;;;3.98;44.25;99940.19;4462853;32;35273;-65
2022/01/21 05:31:37;;;;;;;;;;;;;;;3.55;44.21;99947.34;4464931;32;32939;-66
2022/01/21 05:34:05;;;;;;;;;;;;;;;3.48;44.90;99948.53;4462700;32;35143;-67
2022/01/21 05:36:37;;;;;;;;;;;;;;;3.83;46.62;99952.31;4463233;32;33709;-67
2022/01/21 05:39:08;;;;;;;;;;;;;;;4.37;43.54;99953.41;4460152;32;34407;-66
2022/01/21 05:41:37;;;;;;;;;;;;;;;3.84;45.07;99947.87;4464274;32;34334;-66
2022/01/21 05:44:12;;;;;;;;;;;;;;;3.81;44.73;99948.84;4462790;32;33679;-66
2022/01/21 05:49:15;;;;;;;;;;;;;;;3.79;45.74;99952.47;4458053;32;33805;-66
2022/01/21 05:51:48;;;;;;;;;;;;;;;3.95;48.04;99961.50;4463836;32;34329;-65
2022/01/21 05:54:22;;;;;;;;;;;;;;;3.90;45.21;99964.34;4456565;32;33822;-65
2022/01/21 05:56:50;;;;;;;;;;;;;;;3.66;45.17;99962.75;4462164;32;33185;-67
2022/01/21 05:59:18;;;;;;;;;;;;;;;3.57;45.60;99971.09;4462979;32;34937;-66
2022/01/21 06:01:46;;;;;;;;;;;;;;;3.72;46.96;99971.31;4463871;32;34034;-65
2022/01/21 06:04:14;;;;;;;;;;;;;;;4.13;44.49;99983.66;4459381;32;34474;-67
2022/01/21 06:06:41;;;;;;;;;;;;;;;3.90;44.29;99979.38;4460710;32;34316;-65
2022/01/21 06:09:08;;;;;;;;;;;;;;;3.73;45.62;99988.91;4458491;32;35181;-66
2022/01/21 06:11:36;;;;;;;;;;;;;;;3.81;43.79;100004.44;4460230;32;33970;-65
2022/01/21 06:14:03;;;;;;;;;;;;;;;4.27;43.33;100006.87;4462124;32;34264;-66
2022/01/21 06:16:34;;;;;;;;;;;;;;;4.93;41.59;100014.47;4456552;32;33238;-65
2022/01/21 06:19:02;;;;;;;;;;;;;;;5.29;41.08;100025.94;4459613;32;34435;-66
2022/01/21 06:21:29;;;;;;;;;;;;;;;5.82;39.68;100035.72;4459798;32;33152;-66
2022/01/21 06:23:56;;;;;;;;;;;;;;;5.65;38.65;100042.81;4461637;32;34512;-65
2022/01/21 06:26:24;;;;;;;;;;;;;;;5.39;41.70;100047.59;4464760;32;32045;-67
2022/01/21 06:28:51;;;;;;;;;;;;;;;5.91;39.39;100055.66;4462868;32;35291;-66
2022/01/21 06:31:18;;;;;;;;;;;;;;;6.36;38.09;100054.28;4465074;32;34427;-65
2022/01/21 06:33:46;;;;;;;;;;;;;;;6.61;37.84;100056.47;4463172;32;32928;-66
2022/01/21 06:36:13;;;;;;;;;;;;;;;6.57;37.54;100068.22;4461650;32;33273;-66
2022/01/21 06:38:40;;;;;;;;;;;;;;;6.48;37.87;100076.66;4463234;32;34763;-67
2022/01/21 06:41:08;;;;;;;;;;;;;;;6.83;37.39;100069.47;4463180;32;32672;-68
2022/01/21 06:43:35;;;;;;;;;;;;;;;6.60;36.97;100075.19;4461316;32;34626;-67
2022/01/21 06:46:03;;;;;;;;;;;;;;;5.79;39.74;100078.38;4464367;32;34731;-68
2022/01/21 06:48:30;;;;;;;;;;;;;;;6.05;38.41;100078.91;4462543;32;34378;-67
2022/01/21 06:50:58;;;;;;;;;;;;;;;5.44;41.34;100079.25;4458230;32;34045;-67
2022/01/21 06:53:25;;;;;;;;;;;;;;;5.98;38.93;100086.31;4461998;32;32641;-67
2022/01/21 06:55:53;;;;;;;;;;;;;;;5.64;41.02;100084.44;4465092;32;34261;-67
2022/01/21 06:58:20;;;;;;;;;;;;;;;6.53;38.77;100091.44;4464130;32;34082;-66
2022/01/21 07:00:47;;;;;;;;;;;;;;;6.09;37.94;100099.06;4461047;32;34255;-66
2022/01/21 07:03:15;;;;;;;;;;;;;;;6.55;37.56;100096.72;4463343;32;34023;-66
2022/01/21 07:05:46;;;;;;;;;;;;;;;6.88;37.15;100110.00;4465884;32;33323;-67
2022/01/21 07:08:15;;;;;;;;;;;;;;;7.21;35.51;100098.47;4460529;32;33809;-67
2022/01/21 07:10:42;;;;;;;;;;;;;;;6.68;38.03;100110.22;4464947;32;34268;-66
2022/01/21 07:13:11;;;;;;;;;;;;;;;7.14;35.55;100121.91;4464595;32;33926;-65
2022/01/21 07:15:38;;;;;;;;;;;;;;;6.24;36.86;100127.53;4463320;32;32514;-66
2022/01/21 07:18:06;;;;;;;;;;;;;;;6.86;36.97;100137.62;4463449;32;33960;-66
2022/01/21 07:20:33;;;;;;;;;;;;;;;7.22;35.25;100135.66;4462580;32;34710;-66
2022/01/21 07:23:00;;;;;;;;;;;;;;;7.82;36.22;100137.62;4460931;32;32969;-66
2022/01/21 07:25:28;;;;;;;;;;;;;;;8.16;34.16;100143.69;4465228;32;33391;-66
2022/01/21 07:27:55;;;;;;;;;;;;;;;6.99;37.20;100138.69;4460335;32;33933;-67
2022/01/21 07:30:22;;;;;;;;;;;;;;;6.35;36.80;100139.41;4458548;32;35134;-66
2022/01/21 07:32:50;;;;;;;;;;;;;;;7.64;34.84;100141.31;4459245;32;35105;-66
2022/01/21 07:35:17;;;;;;;;;;;;;;;6.27;39.60;100145.97;4460276;32;34327;-67
2022/01/21 07:38:05;;;;;;;;;;;;;;;6.84;36.15;100145.72;4454533;32;146244;-67
2022/01/21 07:40:32;;;;;;;;;;;;;;;7.50;35.51;100135.94;4464208;32;34230;-66
2022/01/21 07:42:59;;;;;;;;;;;;;;;7.19;36.04;100133.16;4459874;32;35277;-67
2022/01/21 07:45:27;;;;;;;;;;;;;;;7.11;35.85;100126.53;4464200;32;32983;-67
2022/01/21 07:47:54;;;;;;;;;;;;;;;7.09;35.04;100118.63;4463582;32;35069;-67
2022/01/21 07:50:22;;;;;;;;;;;;;;;6.69;36.50;100115.44;4462259;32;34285;-65
2022/01/21 07:52:49;;;;;;;;;;;;;;;5.99;38.15;100109.28;4461721;32;33864;-67
2022/01/21 07:55:17;;;;;;;;;;;;;;;5.99;39.50;100109.28;4462833;32;33194;-66
2022/01/21 07:57:45;;;;;;;;;;;;;;;5.57;38.79;100114.91;4462631;32;32754;-67
2022/01/21 08:00:13;;;;;;;;;;;;;;;5.74;40.34;100116.72;4461718;32;34421;-65
2022/01/21 08:02:40;;;;;;;;;;;;;;;5.41;39.42;100117.41;4465871;32;35059;-65
2022/01/21 08:05:08;;;;;;;;;;;;;;;5.51;38.93;100131.97;4464462;32;33195;-66
2022/01/21 08:07:35;;;;;;;;;;;;;;;4.78;39.42;100135.37;4465883;32;34892;-66
2022/01/21 08:10:03;;;;;;;;;;;;;;;5.07;39.29;100139.34;4467662;32;35081;-67
2022/01/21 08:12:31;;;;;;;;;;;;;;;4.59;42.40;100130.91;4464571;32;32207;-66
2022/01/21 08:14:58;;;;;;;;;;;;;;;5.02;40.04;100144.88;4466847;32;33510;-66
2022/01/21 08:17:29;;;;;;;;;;;;;;;4.95;40.20;100145.25;4464500;32;32893;-68
2022/01/21 08:19:57;;;;;;;;;;;;;;;4.25;41.97;100146.53;4467169;32;34334;-68
2022/01/21 08:22:25;;;;;;;;;;;;;;;4.48;39.11;100125.19;4463290;32;33587;-68
2022/01/21 08:24:53;;;;;;;;;;;;;;;4.83;39.44;100114.81;4466203;32;33436;-67
2022/01/21 08:27:20;;;;;;;;;;;;;;;4.92;38.01;100114.41;4464718;32;34079;-67
2022/01/21 08:29:47;;;;;;;;;;;;;;;4.10;39.76;100095.91;4464714;32;33720;-68
2022/01/21 08:32:15;;;;;;;;;;;;;;;5.70;36.39;100100.06;4464496;32;32654;-68
2022/01/21 08:34:42;;;;;;;;;;;;;;;5.09;37.57;100093.25;4466607;32;33711;-67
2022/01/21 08:37:10;;;;;;;;;;;;;;;5.14;37.35;100106.31;4465043;32;34526;-68
2022/01/21 08:39:37;;;;;;;;;;;;;;;5.26;38.57;100100.41;4467774;32;32869;-66
2022/01/21 08:42:06;;;;;;;;;;;;;;;5.67;37.63;100110.84;4462802;32;32734;-67
2022/01/21 08:44:33;;;;;;;;;;;;;;;4.78;37.76;100107.06;4467950;32;33242;-67
2022/01/21 08:47:00;;;;;;;;;;;;;;;5.89;36.24;100113.31;4463546;32;34006;-68
2022/01/21 08:49:38;;;;;;;;;;;;;;;5.58;37.16;100125.44;4462281;32;34967;-68
2022/01/21 08:52:06;;;;;;;;;;;;;;;6.60;34.73;100121.25;4463797;32;33680;-67
2022/01/21 08:54:33;;;;;;;;;;;;;;;7.27;33.14;100139.88;4467191;32;32144;-67
2022/01/21 08:57:01;;;;;;;;;;;;;;;6.97;34.25;100154.75;4462410;32;35157;-67
2022/01/21 08:59:29;;;;;;;;;;;;;;;6.81;34.06;100153.84;4466669;32;34433;-67
2022/01/21 09:01:56;;;;;;;;;;;;;;;6.92;33.70;100151.47;4464592;32;35252;-67
2022/01/21 09:04:24;;;;;;;;;;;;;;;6.34;35.25;100164.28;4464356;32;34074;-68
2022/01/21 09:06:51;;;;;;;;;;;;;;;7.29;34.95;100178.78;4464222;32;33180;-67
2022/01/21 09:09:19;;;;;;;;;;;;;;;7.18;33.93;100176.69;4466387;32;33919;-68
2022/01/21 09:11:46;;;;;;;;;;;;;;;7.46;32.53;100177.84;4460967;32;34244;-68
2022/01/21 09:14:14;;;;;;;;;;;;;;;6.53;34.77;100162.41;4468041;32;32009;-68
2022/01/21 09:16:42;;;;;;;;;;;;;;;5.35;35.79;100182.28;4465840;32;34255;-68
2022/01/21 09:19:10;;;;;;;;;;;;;;;5.33;36.30;100178.00;4465137;32;34442;-67
2022/01/21 09:21:42;;;;;;;;;;;;;;;5.36;36.31;100167.19;4463657;32;34073;-69
2022/01/21 09:24:09;;;;;;;;;;;;;;;5.64;35.72;100177.38;4466744;32;33349;-67
2022/01/21 09:26:37;;;;;;;;;;;;;;;6.78;33.93;100180.63;4460732;32;33773;-68
2022/01/21 09:29:05;;;;;;;;;;;;;;;6.97;34.02;100185.84;4462204;32;34956;-68
2022/01/21 09:31:32;;;;;;;;;;;;;;;8.94;31.31;100184.41;4460646;32;34111;-67
2022/01/21 09:34:20;;;;;;;;;;;;;;;9.34;30.95;100197.94;4467098;32;33380;-67
2022/01/21 09:36:47;;;;;;;;;;;;;;;10.24;28.16;100193.94;4461733;32;35451;-69
2022/01/21 09:39:15;;;;;;;;;;;;;;;10.15;27.75;100183.88;4462273;32;34580;-68
2022/01/21 09:41:43;;;;;;;;;;;;;;;7.60;33.00;100206.37;4459789;32;34146;-68
2022/01/21 09:44:12;;;;;;;;;;;;;;;6.96;33.74;100197.41;4465903;32;33262;-68
2022/01/21 09:46:43;;;;;;;;;;;;;;;7.05;33.82;100199.59;4465677;32;33593;-68
2022/01/21 09:52:08;;;;;;;;;;;;;;;7.74;33.30;100186.97;4457128;32;33457;-68
2022/01/21 09:54:43;;;;;;;;;;;;;;;9.25;30.97;100195.88;4460838;32;32862;-67
2022/01/21 09:57:10;;;;;;;;;;;;;;;8.36;31.62;100199.38;4460532;32;34101;-68
2022/01/21 09:59:39;;;;;;;;;;;;;;;7.72;33.44;100202.19;4460467;32;33985;-68
2022/01/21 10:02:07;;;;;;;;;;;;;;;7.44;33.25;100193.91;4459490;32;33452;-68
2022/01/21 10:04:37;;;;;;;;;;;;;;;8.46;31.79;100204.22;4463926;32;33415;-68
2022/01/21 10:07:05;;;;;;;;;;;;;;;8.20;31.49;100187.03;4462927;32;33730;-68
2022/01/21 10:09:32;;;;;;;;;;;;;;;7.99;33.99;100189.13;4463375;32;35510;-69
2022/01/21 10:12:01;;;;;;;;;;;;;;;7.94;32.50;100195.56;4466074;32;34199;-69
2022/01/21 10:14:29;;;;;;;;;;;;;;;6.52;38.30;100184.62;4466211;32;34216;-68
2022/01/21 10:16:58;;;;;;;;;;;;;;;7.59;34.36;100188.69;4464356;32;33792;-68
2022/01/21 10:19:27;;;;;;;;;;;;;;;6.24;36.31;100187.81;4456452;32;35105;-68
2022/01/21 10:21:59;;;;;;;;;;;;;;;5.95;37.24;100198.06;4463896;32;33863;-68
2022/01/21 10:24:26;;;;;;;;;;;;;;;6.81;35.21;100190.25;4464310;32;34314;-67
2022/01/21 10:26:54;;;;;;;;;;;;;;;7.98;33.25;100188.25;4462058;32;35163;-69
2022/01/21 10:29:22;;;;;;;;;;;;;;;7.39;34.51;100195.97;4463850;32;33721;-69
2022/01/21 10:31:51;;;;;;;;;;;;;;;7.32;34.91;100191.06;4463250;32;35072;-68
2022/01/21 10:34:25;;;;;;;;;;;;;;;6.36;35.46;100191.66;4462635;32;32897;-69
2022/01/21 10:37:08;;;;;;;;;;;;;;;6.07;36.17;100180.69;4464130;32;33756;-68
2022/01/21 10:39:53;;;;;;;;;;;;;;;6.24;37.29;100193.13;4462942;32;34517;-68
2022/01/21 10:42:22;;;;;;;;;;;;;;;5.27;38.16;100192.41;4466544;32;34092;-67
2022/01/21 10:44:50;;;;;;;;;;;;;;;6.00;38.71;100197.84;4464975;32;33383;-68
2022/01/21 10:47:18;;;;;;;;;;;;;;;5.15;39.78;100198.25;4464152;32;35126;-67
2022/01/21 10:49:56;;;;;;;;;;;;;;;5.19;39.02;100191.88;4462627;32;33813;-67
2022/01/21 10:52:51;;;;;;;;;;;;;;;5.35;39.04;100197.34;4462903;32;32957;-67
2022/01/21 10:55:29;;;;;;;;;;;;;;;5.04;40.35;100206.72;4462614;32;31658;-67
2022/01/21 10:58:03;;;;;;;;;;;;;;;4.42;40.83;100203.19;4458310;32;34085;-67
2022/01/21 11:00:30;;;;;;;;;;;;;;;4.72;40.50;100197.50;4460553;32;34065;-67
2022/01/21 11:03:03;;;;;;;;;;;;;;;4.14;43.49;100195.53;4463958;32;34200;-67
2022/01/21 11:05:37;;;;;;;;;;;;;;;4.20;44.89;100197.06;4462069;32;34852;-67
2022/01/21 11:08:09;;;;;;;;;;;;;;;4.34;43.91;100201.78;4460180;32;35053;-68
2022/01/21 11:10:38;;;;;;;;;;;;;;;3.12;43.68;100207.47;4461888;32;34489;-67
2022/01/21 11:13:16;;;;;;;;;;;;;;;3.51;43.61;100202.47;4460598;32;34109;-67
2022/01/21 11:15:48;;;;;;;;;;;;;;;3.75;46.01;100192.69;4463181;32;33400;-68
2022/01/21 11:18:47;;;;;;;;;;;;;;;3.47;43.42;100187.62;4462994;32;34944;-67
2022/01/21 11:21:15;;;;;;;;;;;;;;;3.61;45.69;100187.09;4467428;32;34189;-66
2022/01/21 11:23:42;;;;;;;;;;;;;;;4.24;43.49;100172.19;4464152;32;32873;-67
2022/01/21 11:26:11;;;;;;;;;;;;;;;4.94;41.29;100170.03;4463842;32;33201;-68
2022/01/21 11:28:40;;;;;;;;;;;;;;;4.55;43.45;100170.84;4454099;32;35271;-67
2022/01/21 11:31:09;;;;;;;;;;;;;;;4.89;41.33;100175.56;4463931;32;34122;-68
2022/01/21 11:33:36;;;;;;;;;;;;;;;4.35;42.25;100148.72;4466915;32;34500;-68
2022/01/21 11:36:04;;;;;;;;;;;;;;;4.78;41.86;100156.59;4464655;32;32993;-67
2022/01/21 11:38:37;;;;;;;;;;;;;;;5.33;42.90;100141.69;4463306;32;33755;-68
2022/01/21 11:41:05;;;;;;;;;;;;;;;5.53;41.25;100137.22;4464469;32;33815;-68
2022/01/21 11:43:33;;;;;;;;;;;;;;;5.16;39.64;100123.00;4464437;32;34027;-66
2022/01/21 11:46:16;;;;;;;;;;;;;;;4.91;39.63;100125.94;4466723;32;33102;-66
2022/01/21 11:48:51;;;;;;;;;;;;;;;4.76;40.37;100113.38;4463827;32;34091;-66
2022/01/21 11:51:32;;;;;;;;;;;;;;;5.11;40.63;100103.81;4467018;32;32609;-68
2022/01/21 11:54:01;;;;;;;;;;;;;;;5.10;39.76;100094.09;4463786;32;35281;-67
2022/01/21 11:56:28;;;;;;;;;;;;;;;5.65;39.68;100082.62;4467068;32;33548;-66
2022/01/21 11:59:25;;;;;;;;;;;;;;;5.42;38.26;100074.00;4466615;32;32931;-67
2022/01/21 12:01:53;;;;;;;;;;;;;;;5.09;40.54;100064.06;4467088;32;35342;-67
2022/01/21 12:04:30;;;;;;;;;;;;;;;4.89;38.58;100050.87;4464678;32;34247;-67
2022/01/21 12:06:58;;;;;;;;;;;;;;;5.17;39.29;100058.41;4464025;32;34251;-66
2022/01/21 12:09:58;;;;;;;;;;;;;;;5.08;39.90;100057.06;4465020;32;33527;-67
2022/01/21 12:12:49;;;;;;;;;;;;;;;5.73;38.67;100057.44;4444930;32;35460;-68
2022/01/21 12:15:21;;;;;;;;;;;;;;;5.38;40.28;100062.69;4462617;32;34773;-68
2022/01/21 12:17:54;;;;;;;;;;;;;;;5.40;39.98;100056.44;4460791;32;33346;-67
2022/01/21 12:20:31;;;;;;;;;;;;;;;5.36;38.08;100056.59;4463658;32;34353;-67
2022/01/21 12:23:13;;;;;;;;;;;;;;;5.71;40.57;100059.28;4465596;32;34507;-68
2022/01/21 12:25:59;;;;;;;;;;;;;;;6.02;38.83;100050.69;4463625;32;32735;-68
2022/01/21 12:28:26;;;;;;;;;;;;;;;5.70;40.35;100040.78;4461581;32;33337;-67
2022/01/21 12:30:54;;;;;;;;;;;;;;;6.12;36.87;100052.88;4465819;32;33769;-67
2022/01/21 12:33:24;;;;;;;;;;;;;;;5.67;39.36;100044.47;4465687;32;35421;-67
2022/01/21 12:35:57;;;;;;;;;;;;;;;5.71;37.62;100043.34;4463665;32;34072;-68
2022/01/21 12:40:58;;;;;;;;;;;;;;;5.32;38.50;100038.22;4460191;32;34654;-67
2022/01/21 12:43:35;;;;;;;;;;;;;;;5.76;38.52;100049.31;4456711;32;34850;-66
2022/01/21 12:46:03;;;;;;;;;;;;;;;5.16;38.80;100054.03;4462237;32;32716;-67
2022/01/21 12:48:34;;;;;;;;;;;;;;;5.37;39.00;100049.50;4461674;32;33521;-66
2022/01/21 12:51:21;;;;;;;;;;;;;;;6.32;37.28;100050.03;4461612;32;33569;-66
2022/01/21 12:56:45;;;;;;;;;;;;;;;6.11;36.58;100062.66;4456174;32;32741;-67
2022/01/21 12:59:19;;;;;;;;;;;;;;;6.65;35.73;100075.81;4460161;32;33673;-67
2022/01/21 13:01:47;;;;;;;;;;;;;;;6.27;38.06;100071.53;4457564;32;32714;-67
2022/01/21 13:04:14;;;;;;;;;;;;;;;6.09;37.86;100076.94;4461009;32;34374;-67
2022/01/21 13:06:48;;;;;;;;;;;;;;;5.47;37.22;100082.62;4461242;32;32525;-67
2022/01/21 13:09:21;;;;;;;;;;;;;;;5.76;38.34;100088.31;4463211;32;32242;-66
2022/01/21 13:11:56;;;;;;;;;;;;;;;5.17;38.02;100081.41;4462287;32;32939;-66
2022/01/21 13:17:00;;;;;;;;;;;;;;;5.99;37.28;100093.34;4460200;32;34003;-68
2022/01/21 13:19:28;;;;;;;;;;;;;;;5.96;36.67;100098.81;4465467;32;33384;-68
2022/01/21 13:21:59;;;;;;;;;;;;;;;5.65;37.29;100091.50;4464061;32;33702;-68
2022/01/21 13:24:29;;;;;;;;;;;;;;;5.55;36.46;100088.44;4462065;32;34002;-68
2022/01/21 13:26:57;;;;;;;;;;;;;;;5.55;35.89;100084.87;4461016;32;33976;-68
2022/01/21 13:29:28;;;;;;;;;;;;;;;5.83;35.89;100082.59;4464301;32;33385;-67
2022/01/21 13:31:57;;;;;;;;;;;;;;;4.99;37.04;100086.66;4464369;32;32836;-68
2022/01/21 13:34:29;;;;;;;;;;;;;;;5.12;38.49;100085.16;4462070;32;35709;-67
2022/01/21 13:36:57;;;;;;;;;;;;;;;5.43;39.38;100089.00;4460994;32;35476;-68
2022/01/21 13:39:28;;;;;;;;;;;;;;;5.92;37.02;100099.03;4460109;32;33681;-68
2022/01/21 13:42:01;;;;;;;;;;;;;;;5.65;37.11;100085.28;4454088;32;37242;-66
2022/01/21 13:44:28;;;;;;;;;;;;;;;5.26;37.08;100075.66;4464724;32;34557;-67
2022/01/21 13:46:57;;;;;;;;;;;;;;;5.47;36.22;100064.03;4461002;32;32864;-66
2022/01/21 13:49:25;;;;;;;;;;;;;;;4.66;40.63;100066.06;4467148;32;34147;-67
2022/01/21 13:51:57;;;;;;;;;;;;;;;4.88;38.82;100054.47;4465169;32;33914;-67
2022/01/21 13:54:29;;;;;;;;;;;;;;;4.36;38.51;100056.81;4466907;32;34980;-68
2022/01/21 13:56:56;;;;;;;;;;;;;;;4.61;37.15;100035.38;4470566;31;34006;-67
2022/01/21 13:59:23;;;;;;;;;;;;;;;4.52;37.06;100046.41;4463238;32;32742;-67
2022/01/21 14:02:04;;;;;;;;;;;;;;;4.63;38.76;100050.28;4456205;32;34836;-67